sensor_id;sensor_type;location;lat;lon;timestamp;P1;durP1;ratioP1;P2;durP2;ratioP2
41925;SDS011;27615;51.826;5.692;2022-08-19T00:02:24;3.63;;;3.33;;
41925;SDS011;27615;51.826;5.692;2022-08-19T00:04:49;4.13;;;3.72;;
41925;SDS011;27615;51.826;5.692;2022-08-19T00:07:18;3.58;;;3.25;;
41925;SDS011;27615;51.826;5.692;2022-08-19T00:09:43;4.28;;;3.42;;
41925;SDS011;27615;51.826;5.692;2022-08-19T00:12:09;4.13;;;3.38;;
41925;SDS011;27615;51.826;5.692;2022-08-19T00:14:35;3.75;;;3.42;;
41925;SDS011;27615;51.826;5.692;2022-08-19T00:17:01;3.65;;;3.35;;
41925;SDS011;27615;51.826;5.692;2022-08-19T00:19:27;4.18;;;3.78;;
41925;SDS011;27615;51.826;5.692;2022-08-19T00:21:53;5.18;;;4.68;;
41925;SDS011;27615;51.826;5.692;2022-08-19T00:24:20;5.18;;;4.75;;
41925;SDS011;27615;51.826;5.692;2022-08-19T00:26:45;4.40;;;4.00;;
41925;SDS011;27615;51.826;5.692;2022-08-19T00:29:12;4.07;;;3.78;;
41925;SDS011;27615;51.826;5.692;2022-08-19T00:31:39;4.32;;;3.92;;
41925;SDS011;27615;51.826;5.692;2022-08-19T00:34:06;4.15;;;3.75;;
41925;SDS011;27615;51.826;5.692;2022-08-19T00:36:32;3.95;;;3.65;;
41925;SDS011;27615;51.826;5.692;2022-08-19T00:38:58;4.20;;;3.80;;
41925;SDS011;27615;51.826;5.692;2022-08-19T00:41:24;4.50;;;4.13;;
41925;SDS011;27615;51.826;5.692;2022-08-19T00:44:04;4.68;;;4.28;;
41925;SDS011;27615;51.826;5.692;2022-08-19T00:46:34;5.50;;;5.00;;
41925;SDS011;27615;51.826;5.692;2022-08-19T00:49:02;5.63;;;5.13;;
41925;SDS011;27615;51.826;5.692;2022-08-19T00:51:40;4.82;;;4.38;;
41925;SDS011;27615;51.826;5.692;2022-08-19T00:54:07;4.70;;;4.30;;
41925;SDS011;27615;51.826;5.692;2022-08-19T00:56:34;3.88;;;3.47;;
41925;SDS011;27615;51.826;5.692;2022-08-19T00:59:00;3.55;;;3.20;;
41925;SDS011;27615;51.826;5.692;2022-08-19T01:01:26;3.45;;;2.50;;
41925;SDS011;27615;51.826;5.692;2022-08-19T01:03:52;2.97;;;2.60;;
41925;SDS011;27615;51.826;5.692;2022-08-19T01:06:18;1.98;;;1.67;;
41925;SDS011;27615;51.826;5.692;2022-08-19T01:08:43;1.73;;;1.63;;
41925;SDS011;27615;51.826;5.692;2022-08-19T01:11:09;2.28;;;2.00;;
41925;SDS011;27615;51.826;5.692;2022-08-19T01:13:37;3.35;;;2.55;;
41925;SDS011;27615;51.826;5.692;2022-08-19T01:16:08;2.90;;;2.70;;
41925;SDS011;27615;51.826;5.692;2022-08-19T01:18:36;3.60;;;3.30;;
41925;SDS011;27615;51.826;5.692;2022-08-19T01:21:08;4.35;;;3.95;;
41925;SDS011;27615;51.826;5.692;2022-08-19T01:23:40;4.13;;;3.72;;
41925;SDS011;27615;51.826;5.692;2022-08-19T01:26:11;3.38;;;3.08;;
41925;SDS011;27615;51.826;5.692;2022-08-19T01:28:40;3.85;;;3.55;;
41925;SDS011;27615;51.826;5.692;2022-08-19T01:31:08;3.13;;;2.83;;
41925;SDS011;27615;51.826;5.692;2022-08-19T01:33:38;3.28;;;2.97;;
41925;SDS011;27615;51.826;5.692;2022-08-19T01:36:05;4.30;;;3.90;;
41925;SDS011;27615;51.826;5.692;2022-08-19T01:41:01;4.78;;;4.28;;
41925;SDS011;27615;51.826;5.692;2022-08-19T01:43:27;5.10;;;4.45;;
41925;SDS011;27615;51.826;5.692;2022-08-19T01:45:52;5.35;;;4.85;;
41925;SDS011;27615;51.826;5.692;2022-08-19T01:48:19;4.72;;;4.32;;
41925;SDS011;27615;51.826;5.692;2022-08-19T01:50:44;5.05;;;4.65;;
41925;SDS011;27615;51.826;5.692;2022-08-19T01:53:10;5.95;;;5.43;;
41925;SDS011;27615;51.826;5.692;2022-08-19T01:55:37;6.68;;;5.97;;
41925;SDS011;27615;51.826;5.692;2022-08-19T01:58:05;5.65;;;5.18;;
41925;SDS011;27615;51.826;5.692;2022-08-19T02:00:38;3.30;;;2.67;;
41925;SDS011;27615;51.826;5.692;2022-08-19T02:03:04;2.05;;;1.85;;
41925;SDS011;27615;51.826;5.692;2022-08-19T02:05:29;3.45;;;3.15;;
41925;SDS011;27615;51.826;5.692;2022-08-19T02:07:55;3.17;;;2.88;;
41925;SDS011;27615;51.826;5.692;2022-08-19T02:10:22;2.42;;;2.22;;
41925;SDS011;27615;51.826;5.692;2022-08-19T02:12:48;2.15;;;1.95;;
41925;SDS011;27615;51.826;5.692;2022-08-19T02:15:14;3.00;;;2.70;;
41925;SDS011;27615;51.826;5.692;2022-08-19T02:17:40;4.07;;;3.25;;
41925;SDS011;27615;51.826;5.692;2022-08-19T02:20:06;4.03;;;3.28;;
41925;SDS011;27615;51.826;5.692;2022-08-19T02:22:32;3.63;;;3.03;;
41925;SDS011;27615;51.826;5.692;2022-08-19T02:24:58;3.80;;;3.47;;
41925;SDS011;27615;51.826;5.692;2022-08-19T02:27:24;3.28;;;2.97;;
41925;SDS011;27615;51.826;5.692;2022-08-19T02:29:50;7.53;;;3.10;;
41925;SDS011;27615;51.826;5.692;2022-08-19T02:32:17;9.82;;;3.35;;
41925;SDS011;27615;51.826;5.692;2022-08-19T02:34:44;4.45;;;3.97;;
41925;SDS011;27615;51.826;5.692;2022-08-19T02:37:10;12.38;;;4.57;;
41925;SDS011;27615;51.826;5.692;2022-08-19T02:39:56;4.82;;;3.70;;
41925;SDS011;27615;51.826;5.692;2022-08-19T02:42:22;5.38;;;3.72;;
41925;SDS011;27615;51.826;5.692;2022-08-19T02:44:47;13.80;;;4.10;;
41925;SDS011;27615;51.826;5.692;2022-08-19T02:47:13;9.85;;;4.25;;
41925;SDS011;27615;51.826;5.692;2022-08-19T02:49:39;15.57;;;4.28;;
41925;SDS011;27615;51.826;5.692;2022-08-19T02:52:05;14.20;;;3.50;;
41925;SDS011;27615;51.826;5.692;2022-08-19T02:54:31;7.30;;;3.42;;
41925;SDS011;27615;51.826;5.692;2022-08-19T02:56:56;4.93;;;3.97;;
41925;SDS011;27615;51.826;5.692;2022-08-19T02:59:22;6.40;;;4.28;;
41925;SDS011;27615;51.826;5.692;2022-08-19T03:01:47;6.75;;;3.63;;
41925;SDS011;27615;51.826;5.692;2022-08-19T03:04:14;3.60;;;3.30;;
41925;SDS011;27615;51.826;5.692;2022-08-19T03:06:41;3.75;;;3.35;;
41925;SDS011;27615;51.826;5.692;2022-08-19T03:09:08;4.03;;;3.72;;
41925;SDS011;27615;51.826;5.692;2022-08-19T03:11:34;4.63;;;4.22;;
41925;SDS011;27615;51.826;5.692;2022-08-19T03:14:00;4.22;;;3.83;;
41925;SDS011;27615;51.826;5.692;2022-08-19T03:16:28;4.35;;;3.95;;
41925;SDS011;27615;51.826;5.692;2022-08-19T03:18:55;6.18;;;4.72;;
41925;SDS011;27615;51.826;5.692;2022-08-19T03:21:25;5.43;;;4.93;;
41925;SDS011;27615;51.826;5.692;2022-08-19T03:23:55;4.80;;;4.40;;
41925;SDS011;27615;51.826;5.692;2022-08-19T03:26:23;4.97;;;4.57;;
41925;SDS011;27615;51.826;5.692;2022-08-19T03:28:49;4.72;;;3.13;;
41925;SDS011;27615;51.826;5.692;2022-08-19T03:31:15;11.38;;;3.20;;
41925;SDS011;27615;51.826;5.692;2022-08-19T03:33:42;2.60;;;2.40;;
41925;SDS011;27615;51.826;5.692;2022-08-19T03:36:13;4.55;;;4.15;;
41925;SDS011;27615;51.826;5.692;2022-08-19T03:38:41;8.68;;;4.55;;
41925;SDS011;27615;51.826;5.692;2022-08-19T03:41:10;14.70;;;5.60;;
41925;SDS011;27615;51.826;5.692;2022-08-19T03:43:43;14.93;;;5.82;;
41925;SDS011;27615;51.826;5.692;2022-08-19T03:46:13;18.25;;;6.63;;
41925;SDS011;27615;51.826;5.692;2022-08-19T03:48:40;12.57;;;6.40;;
41925;SDS011;27615;51.826;5.692;2022-08-19T03:51:07;21.00;;;6.47;;
41925;SDS011;27615;51.826;5.692;2022-08-19T03:53:40;21.60;;;6.53;;
41925;SDS011;27615;51.826;5.692;2022-08-19T03:56:05;20.73;;;6.35;;
41925;SDS011;27615;51.826;5.692;2022-08-19T03:58:34;26.20;;;6.03;;
41925;SDS011;27615;51.826;5.692;2022-08-19T04:00:59;19.80;;;5.75;;
41925;SDS011;27615;51.826;5.692;2022-08-19T04:03:25;10.05;;;6.03;;
41925;SDS011;27615;51.826;5.692;2022-08-19T04:05:51;8.50;;;5.15;;
41925;SDS011;27615;51.826;5.692;2022-08-19T04:08:18;5.97;;;5.35;;
41925;SDS011;27615;51.826;5.692;2022-08-19T04:10:47;15.93;;;5.73;;
41925;SDS011;27615;51.826;5.692;2022-08-19T04:13:14;8.43;;;5.20;;
41925;SDS011;27615;51.826;5.692;2022-08-19T04:15:41;5.65;;;4.65;;
41925;SDS011;27615;51.826;5.692;2022-08-19T04:18:09;9.73;;;6.97;;
41925;SDS011;27615;51.826;5.692;2022-08-19T04:20:45;9.65;;;8.68;;
41925;SDS011;27615;51.826;5.692;2022-08-19T04:23:12;6.88;;;6.28;;
41925;SDS011;27615;51.826;5.692;2022-08-19T04:25:40;7.35;;;5.35;;
41925;SDS011;27615;51.826;5.692;2022-08-19T04:28:08;8.15;;;7.45;;
41925;SDS011;27615;51.826;5.692;2022-08-19T04:30:42;6.97;;;6.13;;
41925;SDS011;27615;51.826;5.692;2022-08-19T04:33:10;5.18;;;4.78;;
41925;SDS011;27615;51.826;5.692;2022-08-19T04:35:40;9.63;;;6.75;;
41925;SDS011;27615;51.826;5.692;2022-08-19T04:38:08;5.68;;;5.18;;
41925;SDS011;27615;51.826;5.692;2022-08-19T04:40:39;8.40;;;4.75;;
41925;SDS011;27615;51.826;5.692;2022-08-19T04:43:24;8.38;;;4.38;;
41925;SDS011;27615;51.826;5.692;2022-08-19T04:45:50;5.05;;;4.60;;
41925;SDS011;27615;51.826;5.692;2022-08-19T04:48:16;12.00;;;5.13;;
41925;SDS011;27615;51.826;5.692;2022-08-19T04:50:51;19.02;;;6.10;;
41925;SDS011;27615;51.826;5.692;2022-08-19T04:53:22;20.65;;;6.63;;
41925;SDS011;27615;51.826;5.692;2022-08-19T04:55:49;20.38;;;7.10;;
41925;SDS011;27615;51.826;5.692;2022-08-19T04:58:14;12.25;;;7.30;;
41925;SDS011;27615;51.826;5.692;2022-08-19T05:00:41;14.95;;;7.78;;
41925;SDS011;27615;51.826;5.692;2022-08-19T05:03:06;18.98;;;8.52;;
41925;SDS011;27615;51.826;5.692;2022-08-19T05:05:32;26.52;;;9.48;;
41925;SDS011;27615;51.826;5.692;2022-08-19T05:07:57;38.97;;;8.98;;
41925;SDS011;27615;51.826;5.692;2022-08-19T05:10:23;24.52;;;9.00;;
41925;SDS011;27615;51.826;5.692;2022-08-19T05:12:49;29.27;;;12.10;;
41925;SDS011;27615;51.826;5.692;2022-08-19T05:15:14;28.00;;;11.48;;
41925;SDS011;27615;51.826;5.692;2022-08-19T05:17:40;17.65;;;11.27;;
41925;SDS011;27615;51.826;5.692;2022-08-19T05:20:25;23.50;;;9.45;;
41925;SDS011;27615;51.826;5.692;2022-08-19T05:23:10;18.52;;;8.88;;
41925;SDS011;27615;51.826;5.692;2022-08-19T05:25:38;19.10;;;8.90;;
41925;SDS011;27615;51.826;5.692;2022-08-19T05:28:05;14.05;;;11.50;;
41925;SDS011;27615;51.826;5.692;2022-08-19T05:30:30;12.65;;;9.88;;
41925;SDS011;27615;51.826;5.692;2022-08-19T05:32:57;15.40;;;9.75;;
41925;SDS011;27615;51.826;5.692;2022-08-19T05:35:22;11.57;;;9.80;;
41925;SDS011;27615;51.826;5.692;2022-08-19T05:37:49;11.23;;;10.13;;
41925;SDS011;27615;51.826;5.692;2022-08-19T05:40:14;13.43;;;10.73;;
41925;SDS011;27615;51.826;5.692;2022-08-19T05:42:40;11.68;;;10.52;;
41925;SDS011;27615;51.826;5.692;2022-08-19T05:45:06;14.88;;;13.13;;
41925;SDS011;27615;51.826;5.692;2022-08-19T05:47:32;22.88;;;16.45;;
41925;SDS011;27615;51.826;5.692;2022-08-19T05:49:57;17.13;;;15.13;;
41925;SDS011;27615;51.826;5.692;2022-08-19T05:52:23;18.33;;;14.77;;
41925;SDS011;27615;51.826;5.692;2022-08-19T05:54:49;22.40;;;18.42;;
41925;SDS011;27615;51.826;5.692;2022-08-19T05:57:15;22.38;;;18.75;;
41925;SDS011;27615;51.826;5.692;2022-08-19T05:59:41;25.65;;;20.17;;
41925;SDS011;27615;51.826;5.692;2022-08-19T06:02:08;25.42;;;21.02;;
41925;SDS011;27615;51.826;5.692;2022-08-19T06:04:36;25.80;;;21.83;;
41925;SDS011;27615;51.826;5.692;2022-08-19T06:07:02;26.02;;;22.63;;
41925;SDS011;27615;51.826;5.692;2022-08-19T06:09:28;24.45;;;20.52;;
41925;SDS011;27615;51.826;5.692;2022-08-19T06:11:55;27.92;;;22.05;;
41925;SDS011;27615;51.826;5.692;2022-08-19T06:14:26;32.75;;;25.73;;
41925;SDS011;27615;51.826;5.692;2022-08-19T06:16:54;34.28;;;26.77;;
41925;SDS011;27615;51.826;5.692;2022-08-19T06:19:21;31.67;;;24.65;;
41925;SDS011;27615;51.826;5.692;2022-08-19T06:21:49;32.47;;;23.27;;
41925;SDS011;27615;51.826;5.692;2022-08-19T06:24:18;35.13;;;25.17;;
41925;SDS011;27615;51.826;5.692;2022-08-19T06:26:51;33.10;;;24.70;;
41925;SDS011;27615;51.826;5.692;2022-08-19T06:29:19;37.67;;;27.35;;
41925;SDS011;27615;51.826;5.692;2022-08-19T06:31:47;34.90;;;25.67;;
41925;SDS011;27615;51.826;5.692;2022-08-19T06:34:15;42.08;;;30.17;;
41925;SDS011;27615;51.826;5.692;2022-08-19T06:36:41;35.83;;;26.50;;
41925;SDS011;27615;51.826;5.692;2022-08-19T06:39:19;33.65;;;24.73;;
41925;SDS011;27615;51.826;5.692;2022-08-19T06:41:50;36.65;;;28.65;;
41925;SDS011;27615;51.826;5.692;2022-08-19T06:44:18;43.67;;;31.02;;
41925;SDS011;27615;51.826;5.692;2022-08-19T06:46:45;37.35;;;27.85;;
41925;SDS011;27615;51.826;5.692;2022-08-19T06:49:12;34.45;;;25.88;;
41925;SDS011;27615;51.826;5.692;2022-08-19T06:51:39;38.63;;;26.80;;
41925;SDS011;27615;51.826;5.692;2022-08-19T06:54:06;45.50;;;32.70;;
41925;SDS011;27615;51.826;5.692;2022-08-19T06:56:32;40.97;;;30.25;;
41925;SDS011;27615;51.826;5.692;2022-08-19T06:59:02;40.75;;;27.77;;
41925;SDS011;27615;51.826;5.692;2022-08-19T07:01:28;38.88;;;29.85;;
41925;SDS011;27615;51.826;5.692;2022-08-19T07:03:54;39.22;;;30.33;;
41925;SDS011;27615;51.826;5.692;2022-08-19T07:06:21;40.60;;;29.73;;
41925;SDS011;27615;51.826;5.692;2022-08-19T07:08:47;40.47;;;29.95;;
41925;SDS011;27615;51.826;5.692;2022-08-19T07:11:14;38.83;;;28.65;;
41925;SDS011;27615;51.826;5.692;2022-08-19T07:13:42;44.55;;;32.85;;
41925;SDS011;27615;51.826;5.692;2022-08-19T07:16:17;48.35;;;35.58;;
41925;SDS011;27615;51.826;5.692;2022-08-19T07:18:44;49.55;;;35.65;;
41925;SDS011;27615;51.826;5.692;2022-08-19T07:21:12;50.22;;;35.33;;
41925;SDS011;27615;51.826;5.692;2022-08-19T07:23:43;49.17;;;36.38;;
41925;SDS011;27615;51.826;5.692;2022-08-19T07:26:10;50.67;;;35.20;;
41925;SDS011;27615;51.826;5.692;2022-08-19T07:28:39;51.70;;;36.72;;
41925;SDS011;27615;51.826;5.692;2022-08-19T07:31:06;45.65;;;34.70;;
41925;SDS011;27615;51.826;5.692;2022-08-19T07:33:32;51.78;;;37.67;;
41925;SDS011;27615;51.826;5.692;2022-08-19T07:36:01;48.10;;;37.17;;
41925;SDS011;27615;51.826;5.692;2022-08-19T07:38:31;46.88;;;34.67;;
41925;SDS011;27615;51.826;5.692;2022-08-19T07:40:57;51.92;;;36.67;;
41925;SDS011;27615;51.826;5.692;2022-08-19T07:43:23;44.53;;;30.98;;
41925;SDS011;27615;51.826;5.692;2022-08-19T07:45:51;45.13;;;30.85;;
41925;SDS011;27615;51.826;5.692;2022-08-19T07:48:25;48.22;;;33.25;;
41925;SDS011;27615;51.826;5.692;2022-08-19T07:50:55;41.08;;;28.33;;
41925;SDS011;27615;51.826;5.692;2022-08-19T07:53:23;38.63;;;28.52;;
41925;SDS011;27615;51.826;5.692;2022-08-19T07:55:49;36.40;;;27.90;;
41925;SDS011;27615;51.826;5.692;2022-08-19T07:58:16;40.35;;;25.75;;
41925;SDS011;27615;51.826;5.692;2022-08-19T08:00:45;36.70;;;28.17;;
41925;SDS011;27615;51.826;5.692;2022-08-19T08:03:12;56.20;;;40.97;;
41925;SDS011;27615;51.826;5.692;2022-08-19T08:05:39;41.90;;;32.60;;
41925;SDS011;27615;51.826;5.692;2022-08-19T08:08:23;47.67;;;34.20;;
41925;SDS011;27615;51.826;5.692;2022-08-19T08:11:07;45.50;;;31.63;;
41925;SDS011;27615;51.826;5.692;2022-08-19T08:13:33;42.38;;;29.48;;
41925;SDS011;27615;51.826;5.692;2022-08-19T08:16:00;38.80;;;27.38;;
41925;SDS011;27615;51.826;5.692;2022-08-19T08:18:27;35.33;;;25.38;;
41925;SDS011;27615;51.826;5.692;2022-08-19T08:20:53;43.25;;;30.08;;
41925;SDS011;27615;51.826;5.692;2022-08-19T08:23:19;35.72;;;27.65;;
41925;SDS011;27615;51.826;5.692;2022-08-19T08:25:50;40.15;;;26.70;;
41925;SDS011;27615;51.826;5.692;2022-08-19T08:28:17;38.08;;;27.88;;
41925;SDS011;27615;51.826;5.692;2022-08-19T08:30:43;47.25;;;33.78;;
41925;SDS011;27615;51.826;5.692;2022-08-19T08:33:12;39.47;;;28.33;;
41925;SDS011;27615;51.826;5.692;2022-08-19T08:35:39;34.03;;;24.83;;
41925;SDS011;27615;51.826;5.692;2022-08-19T08:38:06;35.58;;;25.50;;
41925;SDS011;27615;51.826;5.692;2022-08-19T08:43:08;27.98;;;20.48;;
41925;SDS011;27615;51.826;5.692;2022-08-19T08:45:45;30.63;;;22.05;;
41925;SDS011;27615;51.826;5.692;2022-08-19T08:48:38;29.73;;;22.30;;
41925;SDS011;27615;51.826;5.692;2022-08-19T08:51:27;32.63;;;22.35;;
41925;SDS011;27615;51.826;5.692;2022-08-19T08:53:58;27.27;;;20.67;;
41925;SDS011;27615;51.826;5.692;2022-08-19T08:56:24;28.25;;;20.60;;
41925;SDS011;27615;51.826;5.692;2022-08-19T08:59:36;32.78;;;21.92;;
41925;SDS011;27615;51.826;5.692;2022-08-19T09:01:47;31.58;;;24.45;;
41925;SDS011;27615;51.826;5.692;2022-08-19T09:04:13;28.55;;;22.48;;
41925;SDS011;27615;51.826;5.692;2022-08-19T09:09:26;25.23;;;20.48;;
41925;SDS011;27615;51.826;5.692;2022-08-19T09:12:11;29.58;;;21.27;;
41925;SDS011;27615;51.826;5.692;2022-08-19T09:15:02;30.73;;;21.33;;
41925;SDS011;27615;51.826;5.692;2022-08-19T09:17:30;24.10;;;19.45;;
41925;SDS011;27615;51.826;5.692;2022-08-19T09:22:31;25.63;;;19.67;;
41925;SDS011;27615;51.826;5.692;2022-08-19T09:24:57;25.77;;;20.30;;
41925;SDS011;27615;51.826;5.692;2022-08-19T09:27:23;19.85;;;16.60;;
41925;SDS011;27615;51.826;5.692;2022-08-19T09:29:50;20.48;;;16.13;;
41925;SDS011;27615;51.826;5.692;2022-08-19T09:32:16;22.77;;;17.77;;
41925;SDS011;27615;51.826;5.692;2022-08-19T09:34:43;21.58;;;16.83;;
41925;SDS011;27615;51.826;5.692;2022-08-19T09:37:08;19.98;;;15.50;;
41925;SDS011;27615;51.826;5.692;2022-08-19T09:39:34;18.40;;;15.05;;
41925;SDS011;27615;51.826;5.692;2022-08-19T09:42:00;18.55;;;15.13;;
41925;SDS011;27615;51.826;5.692;2022-08-19T09:44:25;18.67;;;15.15;;
41925;SDS011;27615;51.826;5.692;2022-08-19T09:46:51;18.42;;;15.25;;
41925;SDS011;27615;51.826;5.692;2022-08-19T09:49:17;24.52;;;16.83;;
41925;SDS011;27615;51.826;5.692;2022-08-19T09:51:49;24.90;;;18.70;;
41925;SDS011;27615;51.826;5.692;2022-08-19T09:54:15;21.58;;;16.52;;
41925;SDS011;27615;51.826;5.692;2022-08-19T09:56:41;21.17;;;16.80;;
41925;SDS011;27615;51.826;5.692;2022-08-19T09:59:06;20.30;;;15.73;;
41925;SDS011;27615;51.826;5.692;2022-08-19T10:01:32;20.02;;;16.40;;
41925;SDS011;27615;51.826;5.692;2022-08-19T10:03:58;20.10;;;15.73;;
41925;SDS011;27615;51.826;5.692;2022-08-19T10:06:27;17.23;;;14.80;;
41925;SDS011;27615;51.826;5.692;2022-08-19T10:08:58;17.15;;;15.00;;
41925;SDS011;27615;51.826;5.692;2022-08-19T10:11:25;20.48;;;16.17;;
41925;SDS011;27615;51.826;5.692;2022-08-19T10:13:51;20.27;;;14.95;;
41925;SDS011;27615;51.826;5.692;2022-08-19T10:16:18;15.63;;;13.50;;
41925;SDS011;27615;51.826;5.692;2022-08-19T10:18:47;20.25;;;15.95;;
41925;SDS011;27615;51.826;5.692;2022-08-19T10:21:21;18.15;;;14.77;;
41925;SDS011;27615;51.826;5.692;2022-08-19T10:23:52;18.98;;;15.82;;
41925;SDS011;27615;51.826;5.692;2022-08-19T10:28:49;15.70;;;12.75;;
41925;SDS011;27615;51.826;5.692;2022-08-19T10:31:19;17.35;;;14.55;;
41925;SDS011;27615;51.826;5.692;2022-08-19T10:33:55;15.73;;;12.88;;
41925;SDS011;27615;51.826;5.692;2022-08-19T10:36:26;18.20;;;14.93;;
41925;SDS011;27615;51.826;5.692;2022-08-19T10:38:54;20.63;;;16.20;;
41925;SDS011;27615;51.826;5.692;2022-08-19T10:41:24;18.92;;;14.13;;
41925;SDS011;27615;51.826;5.692;2022-08-19T10:43:52;20.05;;;14.77;;
41925;SDS011;27615;51.826;5.692;2022-08-19T10:46:19;14.13;;;12.63;;
41925;SDS011;27615;51.826;5.692;2022-08-19T10:48:46;14.40;;;12.70;;
41925;SDS011;27615;51.826;5.692;2022-08-19T10:51:11;16.13;;;12.63;;
41925;SDS011;27615;51.826;5.692;2022-08-19T10:53:56;17.08;;;12.77;;
41925;SDS011;27615;51.826;5.692;2022-08-19T10:56:22;13.18;;;11.00;;
41925;SDS011;27615;51.826;5.692;2022-08-19T10:59:06;16.00;;;12.55;;
41925;SDS011;27615;51.826;5.692;2022-08-19T11:01:33;19.77;;;16.42;;
41925;SDS011;27615;51.826;5.692;2022-08-19T11:04:00;15.85;;;13.27;;
41925;SDS011;27615;51.826;5.692;2022-08-19T11:06:27;16.52;;;12.75;;
41925;SDS011;27615;51.826;5.692;2022-08-19T11:08:53;15.05;;;12.85;;
41925;SDS011;27615;51.826;5.692;2022-08-19T11:11:19;15.65;;;13.20;;
41925;SDS011;27615;51.826;5.692;2022-08-19T11:13:48;14.75;;;13.20;;
41925;SDS011;27615;51.826;5.692;2022-08-19T11:16:18;17.58;;;15.73;;
41925;SDS011;27615;51.826;5.692;2022-08-19T11:18:48;14.27;;;12.75;;
41925;SDS011;27615;51.826;5.692;2022-08-19T11:21:20;14.88;;;12.82;;
41925;SDS011;27615;51.826;5.692;2022-08-19T11:23:48;15.77;;;12.43;;
41925;SDS011;27615;51.826;5.692;2022-08-19T11:26:15;15.80;;;13.98;;
41925;SDS011;27615;51.826;5.692;2022-08-19T11:28:41;16.45;;;13.45;;
41925;SDS011;27615;51.826;5.692;2022-08-19T11:31:11;12.77;;;11.38;;
41925;SDS011;27615;51.826;5.692;2022-08-19T11:33:38;15.30;;;13.57;;
41925;SDS011;27615;51.826;5.692;2022-08-19T11:36:05;19.83;;;17.48;;
41925;SDS011;27615;51.826;5.692;2022-08-19T11:38:30;18.05;;;16.15;;
41925;SDS011;27615;51.826;5.692;2022-08-19T11:40:57;15.70;;;14.10;;
41925;SDS011;27615;51.826;5.692;2022-08-19T11:43:24;14.43;;;12.27;;
41925;SDS011;27615;51.826;5.692;2022-08-19T11:45:51;11.23;;;10.07;;
41925;SDS011;27615;51.826;5.692;2022-08-19T11:48:18;12.63;;;11.23;;
41925;SDS011;27615;51.826;5.692;2022-08-19T11:50:46;16.25;;;13.57;;
41925;SDS011;27615;51.826;5.692;2022-08-19T11:53:17;13.20;;;11.90;;
41925;SDS011;27615;51.826;5.692;2022-08-19T11:55:44;16.90;;;13.32;;
41925;SDS011;27615;51.826;5.692;2022-08-19T11:58:11;16.85;;;14.82;;
41925;SDS011;27615;51.826;5.692;2022-08-19T12:00:38;13.90;;;12.38;;
41925;SDS011;27615;51.826;5.692;2022-08-19T12:03:05;15.32;;;13.80;;
41925;SDS011;27615;51.826;5.692;2022-08-19T12:05:31;16.40;;;14.57;;
41925;SDS011;27615;51.826;5.692;2022-08-19T12:07:56;13.98;;;12.55;;
41925;SDS011;27615;51.826;5.692;2022-08-19T12:10:22;12.85;;;11.65;;
41925;SDS011;27615;51.826;5.692;2022-08-19T12:12:48;17.75;;;14.98;;
41925;SDS011;27615;51.826;5.692;2022-08-19T12:15:14;19.17;;;17.25;;
41925;SDS011;27615;51.826;5.692;2022-08-19T12:17:40;18.67;;;16.70;;
41925;SDS011;27615;51.826;5.692;2022-08-19T12:20:07;14.60;;;13.10;;
41925;SDS011;27615;51.826;5.692;2022-08-19T12:22:35;14.60;;;12.90;;
41925;SDS011;27615;51.826;5.692;2022-08-19T12:25:02;15.45;;;13.68;;
41925;SDS011;27615;51.826;5.692;2022-08-19T12:27:29;14.07;;;12.65;;
41925;SDS011;27615;51.826;5.692;2022-08-19T12:29:55;13.80;;;12.35;;
41925;SDS011;27615;51.826;5.692;2022-08-19T12:32:21;18.20;;;16.00;;
41925;SDS011;27615;51.826;5.692;2022-08-19T12:34:49;15.57;;;13.15;;
41925;SDS011;27615;51.826;5.692;2022-08-19T12:37:15;13.23;;;11.85;;
41925;SDS011;27615;51.826;5.692;2022-08-19T12:39:41;18.55;;;15.85;;
41925;SDS011;27615;51.826;5.692;2022-08-19T12:42:08;13.77;;;12.32;;
41925;SDS011;27615;51.826;5.692;2022-08-19T12:44:35;12.52;;;11.32;;
41925;SDS011;27615;51.826;5.692;2022-08-19T12:47:03;12.77;;;11.47;;
41925;SDS011;27615;51.826;5.692;2022-08-19T12:49:29;15.18;;;13.65;;
41925;SDS011;27615;51.826;5.692;2022-08-19T12:51:56;14.75;;;13.30;;
41925;SDS011;27615;51.826;5.692;2022-08-19T12:54:23;13.50;;;12.23;;
41925;SDS011;27615;51.826;5.692;2022-08-19T12:56:48;14.45;;;13.05;;
41925;SDS011;27615;51.826;5.692;2022-08-19T12:59:14;12.55;;;11.25;;
41925;SDS011;27615;51.826;5.692;2022-08-19T13:01:42;12.33;;;11.20;;
41925;SDS011;27615;51.826;5.692;2022-08-19T13:04:09;13.13;;;11.75;;
41925;SDS011;27615;51.826;5.692;2022-08-19T13:06:35;12.20;;;11.10;;
41925;SDS011;27615;51.826;5.692;2022-08-19T13:09:02;15.63;;;14.02;;
41925;SDS011;27615;51.826;5.692;2022-08-19T13:11:31;12.02;;;10.82;;
41925;SDS011;27615;51.826;5.692;2022-08-19T13:13:58;12.35;;;11.07;;
41925;SDS011;27615;51.826;5.692;2022-08-19T13:16:25;11.77;;;10.18;;
41925;SDS011;27615;51.826;5.692;2022-08-19T13:18:52;12.35;;;11.10;;
41925;SDS011;27615;51.826;5.692;2022-08-19T13:21:19;11.10;;;10.00;;
41925;SDS011;27615;51.826;5.692;2022-08-19T13:23:47;14.35;;;11.48;;
41925;SDS011;27615;51.826;5.692;2022-08-19T13:26:14;12.77;;;11.38;;
41925;SDS011;27615;51.826;5.692;2022-08-19T13:28:41;12.70;;;11.40;;
41925;SDS011;27615;51.826;5.692;2022-08-19T13:31:27;15.07;;;12.25;;
41925;SDS011;27615;51.826;5.692;2022-08-19T13:34:13;16.60;;;11.88;;
41925;SDS011;27615;51.826;5.692;2022-08-19T13:36:40;12.73;;;10.68;;
41925;SDS011;27615;51.826;5.692;2022-08-19T13:39:06;11.10;;;9.23;;
41925;SDS011;27615;51.826;5.692;2022-08-19T13:41:33;11.75;;;10.65;;
41925;SDS011;27615;51.826;5.692;2022-08-19T13:44:00;11.57;;;10.43;;
41925;SDS011;27615;51.826;5.692;2022-08-19T13:46:26;11.93;;;10.73;;
41925;SDS011;27615;51.826;5.692;2022-08-19T13:48:54;12.93;;;11.57;;
41925;SDS011;27615;51.826;5.692;2022-08-19T13:51:19;12.35;;;11.10;;
41925;SDS011;27615;51.826;5.692;2022-08-19T13:53:45;15.07;;;13.35;;
41925;SDS011;27615;51.826;5.692;2022-08-19T13:56:14;14.82;;;13.23;;
41925;SDS011;27615;51.826;5.692;2022-08-19T13:58:43;16.13;;;14.40;;
41925;SDS011;27615;51.826;5.692;2022-08-19T14:01:09;15.05;;;13.40;;
41925;SDS011;27615;51.826;5.692;2022-08-19T14:03:35;15.10;;;13.57;;
41925;SDS011;27615;51.826;5.692;2022-08-19T14:06:01;16.25;;;12.40;;
41925;SDS011;27615;51.826;5.692;2022-08-19T14:08:27;13.98;;;12.68;;
41925;SDS011;27615;51.826;5.692;2022-08-19T14:10:54;15.13;;;13.20;;
41925;SDS011;27615;51.826;5.692;2022-08-19T14:13:21;13.52;;;12.23;;
41925;SDS011;27615;51.826;5.692;2022-08-19T14:15:48;15.32;;;13.20;;
41925;SDS011;27615;51.826;5.692;2022-08-19T14:18:15;13.82;;;12.38;;
41925;SDS011;27615;51.826;5.692;2022-08-19T14:20:41;10.93;;;9.80;;
41925;SDS011;27615;51.826;5.692;2022-08-19T14:23:07;8.20;;;7.38;;
41925;SDS011;27615;51.826;5.692;2022-08-19T14:25:33;8.15;;;6.90;;
41925;SDS011;27615;51.826;5.692;2022-08-19T14:27:59;11.82;;;10.35;;
41925;SDS011;27615;51.826;5.692;2022-08-19T14:30:27;15.82;;;13.40;;
41925;SDS011;27615;51.826;5.692;2022-08-19T14:32:55;23.95;;;15.02;;
41925;SDS011;27615;51.826;5.692;2022-08-19T14:35:22;17.17;;;15.37;;
41925;SDS011;27615;51.826;5.692;2022-08-19T14:37:49;18.45;;;16.55;;
41925;SDS011;27615;51.826;5.692;2022-08-19T14:40:17;20.77;;;18.67;;
41925;SDS011;27615;51.826;5.692;2022-08-19T14:42:46;21.55;;;19.35;;
41925;SDS011;27615;51.826;5.692;2022-08-19T14:45:13;18.40;;;16.60;;
41925;SDS011;27615;51.826;5.692;2022-08-19T14:47:39;19.17;;;17.08;;
41925;SDS011;27615;51.826;5.692;2022-08-19T14:50:08;18.60;;;16.38;;